Maersk Magellan — 9V6751 — position and weather

sailwx.info

Track history (hours):
 
Tides and Currents Weather Stations Pressure Air Temp Water Temp Dewpoint Dewpoint Depression Visibility Wind Speed Wind Dir Waves Ship Positions

Maersk Magellan

Last reported at 2018-Feb-09 22:44 UTC. Time now 2018-Feb-22 07:29 UTC.
Position N 01°18' E 103°22'.
Warning: this ship's position is 12 days out of date.

Length 183 m; draft 10.5 m.

Type: Ship. MMSI: 566549000.

Date/timePositionNaut miles runAvg speedWind from/ knotsBaromVisibWave heightAir tempDewpointWater temp
2018-Feb-09 22:44N 01°18' E 103°22'11 0.5
2018-Feb-09 01:00N 01°21' E 103°33'3 6.0
2018-Feb-09 00:30N 01°18' E 103°33'6 0.5
2018-Feb-08 12:00N 01°13' E 103°33'  
2018-Jan-31 09:51N 21°58' E 119°54'613.3
2018-Jan-31 09:26N 22°03' E 119°54'913.3
2018-Jan-31 08:44N 22°12' E 119°54'413.1
2018-Jan-31 08:25N 22°17' E 119°54'613.6
2018-Jan-31 08:01N 22°22' E 119°53'713.6
2018-Jan-31 07:31N 22°29' E 119°54'713.7
2018-Jan-31 07:00N 22°36' E 119°54'713.3
2018-Jan-31 06:29N 22°43' E 119°53'714.3
2018-Jan-31 06:00N 22°50' E 119°54'714.9
2018-Jan-31 05:30N 22°57' E 119°54'714.1
2018-Jan-31 05:00N 23°04' E 119°53'914.0
2018-Jan-31 04:22N 23°13' E 119°53'614.2
2018-Jan-31 03:58N 23°19' E 119°53'714.3
2018-Jan-31 03:30N 23°25' E 119°53'713.5
2018-Jan-31 02:58N 23°32' E 119°53'612.2
2018-Jan-31 02:31N 23°38' E 119°53'611.5
2018-Jan-31 02:00N 23°44' E 119°52'611.6
2018-Jan-31 01:30N 23°50' E 119°53'  
Track history (hours):
 
Tides and Currents Weather Stations Pressure Air Temp Water Temp Dewpoint Dewpoint Depression Visibility Wind Speed Wind Dir Waves Ship Positions

Maersk Magellan

Last reported at 2018-Feb-09 22:44 UTC. Time now 2018-Feb-22 07:29 UTC.
Position N 01°18' E 103°22'.
Warning: this ship's position is 12 days out of date.

Length 183 m; draft 10.5 m.

Type: Ship. MMSI: 566549000.

Date/timePositionNaut miles runAvg speedWind from/ knotsBaromVisibWave heightAir tempDewpointWater temp
2018-Feb-09 22:44N 01°18' E 103°22'11 0.5
2018-Feb-09 01:00N 01°21' E 103°33'3 6.0
2018-Feb-09 00:30N 01°18' E 103°33'6 0.5
2018-Feb-08 12:00N 01°13' E 103°33'  
2018-Jan-31 09:51N 21°58' E 119°54'613.3
2018-Jan-31 09:26N 22°03' E 119°54'913.3
2018-Jan-31 08:44N 22°12' E 119°54'413.1
2018-Jan-31 08:25N 22°17' E 119°54'613.6
2018-Jan-31 08:01N 22°22' E 119°53'713.6
2018-Jan-31 07:31N 22°29' E 119°54'713.7
2018-Jan-31 07:00N 22°36' E 119°54'713.3
2018-Jan-31 06:29N 22°43' E 119°53'714.3
2018-Jan-31 06:00N 22°50' E 119°54'714.9
2018-Jan-31 05:30N 22°57' E 119°54'714.1
2018-Jan-31 05:00N 23°04' E 119°53'914.0
2018-Jan-31 04:22N 23°13' E 119°53'614.2
2018-Jan-31 03:58N 23°19' E 119°53'714.3
2018-Jan-31 03:30N 23°25' E 119°53'713.5
2018-Jan-31 02:58N 23°32' E 119°53'612.2
2018-Jan-31 02:31N 23°38' E 119°53'611.5
2018-Jan-31 02:00N 23°44' E 119°52'611.6
2018-Jan-31 01:30N 23°50' E 119°53'  

Dump ship's entire track history